sensor_id;sensor_type;location;lat;lon;timestamp;pressure;altitude;pressure_sealevel;temperature;humidity
35704;BME280;21820;51.112;13.762;2023-04-16T00:00:24;99168.75;;;22.58;56.33
35704;BME280;21820;51.112;13.762;2023-04-16T00:02:50;99180.75;;;22.61;56.52
35704;BME280;21820;51.112;13.762;2023-04-16T00:05:15;99180.06;;;22.59;57.53
35704;BME280;21820;51.112;13.762;2023-04-16T00:07:40;99180.38;;;22.56;56.82
35704;BME280;21820;51.112;13.762;2023-04-16T00:10:06;99189.06;;;22.56;56.25
35704;BME280;21820;51.112;13.762;2023-04-16T00:12:32;99176.78;;;22.57;57.29
35704;BME280;21820;51.112;13.762;2023-04-16T00:14:57;99173.41;;;22.47;57.36
35704;BME280;21820;51.112;13.762;2023-04-16T00:17:23;99184.13;;;22.53;57.50
35704;BME280;21820;51.112;13.762;2023-04-16T00:19:48;99186.59;;;22.55;56.05
35704;BME280;21820;51.112;13.762;2023-04-16T00:22:14;99194.59;;;22.53;57.09
35704;BME280;21820;51.112;13.762;2023-04-16T00:24:39;99190.19;;;22.54;56.79
35704;BME280;21820;51.112;13.762;2023-04-16T00:27:05;99194.44;;;22.55;57.78
35704;BME280;21820;51.112;13.762;2023-04-16T00:29:30;99195.94;;;22.57;57.46
35704;BME280;21820;51.112;13.762;2023-04-16T00:31:56;99193.19;;;22.59;57.41
35704;BME280;21820;51.112;13.762;2023-04-16T00:34:21;99188.25;;;22.56;57.13
35704;BME280;21820;51.112;13.762;2023-04-16T00:36:47;99202.31;;;22.55;57.69
35704;BME280;21820;51.112;13.762;2023-04-16T00:39:12;99196.69;;;22.50;57.84
35704;BME280;21820;51.112;13.762;2023-04-16T00:41:37;99201.25;;;22.48;56.75
35704;BME280;21820;51.112;13.762;2023-04-16T00:44:03;99184.84;;;22.38;57.78
35704;BME280;21820;51.112;13.762;2023-04-16T00:46:28;99201.56;;;22.45;57.39
35704;BME280;21820;51.112;13.762;2023-04-16T00:48:54;99202.69;;;22.42;57.17
35704;BME280;21820;51.112;13.762;2023-04-16T00:51:20;99203.28;;;22.36;56.73
35704;BME280;21820;51.112;13.762;2023-04-16T00:53:46;99200.47;;;22.30;58.18
35704;BME280;21820;51.112;13.762;2023-04-16T00:56:12;99208.06;;;22.33;57.68
35704;BME280;21820;51.112;13.762;2023-04-16T00:58:37;99205.72;;;22.30;58.64
35704;BME280;21820;51.112;13.762;2023-04-16T01:01:03;99204.41;;;22.26;57.40
35704;BME280;21820;51.112;13.762;2023-04-16T01:03:42;99206.19;;;22.25;57.99
35704;BME280;21820;51.112;13.762;2023-04-16T01:06:08;99202.88;;;22.23;58.51
35704;BME280;21820;51.112;13.762;2023-04-16T01:08:34;99186.31;;;22.15;57.78
35704;BME280;21820;51.112;13.762;2023-04-16T01:11:00;99201.09;;;22.24;57.18
35704;BME280;21820;51.112;13.762;2023-04-16T01:13:25;99191.69;;;22.13;57.54
35704;BME280;21820;51.112;13.762;2023-04-16T01:15:51;99205.81;;;22.20;57.49
35704;BME280;21820;51.112;13.762;2023-04-16T01:18:18;99201.41;;;22.21;58.54
35704;BME280;21820;51.112;13.762;2023-04-16T01:20:44;99210.59;;;22.25;57.50
35704;BME280;21820;51.112;13.762;2023-04-16T01:23:10;99203.03;;;22.22;57.68
35704;BME280;21820;51.112;13.762;2023-04-16T01:25:36;99207.59;;;22.20;57.44
35704;BME280;21820;51.112;13.762;2023-04-16T01:28:01;99214.81;;;22.18;57.81
35704;BME280;21820;51.112;13.762;2023-04-16T01:30:27;99211.88;;;22.21;57.81
35704;BME280;21820;51.112;13.762;2023-04-16T01:32:52;99210.91;;;22.22;58.52
35704;BME280;21820;51.112;13.762;2023-04-16T01:35:17;99209.78;;;22.24;57.98
35704;BME280;21820;51.112;13.762;2023-04-16T01:37:43;99210.09;;;22.21;57.38
35704;BME280;21820;51.112;13.762;2023-04-16T01:40:09;99210.09;;;22.21;57.49
35704;BME280;21820;51.112;13.762;2023-04-16T01:42:34;99209.56;;;22.18;57.62
35704;BME280;21820;51.112;13.762;2023-04-16T01:45:00;99211.22;;;22.19;57.58
35704;BME280;21820;51.112;13.762;2023-04-16T01:47:25;99218.06;;;22.20;57.29
35704;BME280;21820;51.112;13.762;2023-04-16T01:49:51;99200.00;;;22.09;58.44
35704;BME280;21820;51.112;13.762;2023-04-16T01:52:16;99215.19;;;22.23;58.04
35704;BME280;21820;51.112;13.762;2023-04-16T01:54:42;99218.75;;;22.22;58.35
35704;BME280;21820;51.112;13.762;2023-04-16T01:57:07;99223.56;;;22.26;58.42
35704;BME280;21820;51.112;13.762;2023-04-16T01:59:33;99212.19;;;22.18;58.57
35704;BME280;21820;51.112;13.762;2023-04-16T02:02:02;99218.31;;;22.26;58.19
35704;BME280;21820;51.112;13.762;2023-04-16T02:04:31;99214.88;;;22.26;57.60
35704;BME280;21820;51.112;13.762;2023-04-16T02:06:56;99197.13;;;22.20;57.50
35704;BME280;21820;51.112;13.762;2023-04-16T02:09:22;99218.69;;;22.31;58.25
35704;BME280;21820;51.112;13.762;2023-04-16T02:11:47;99218.97;;;22.28;58.25
35704;BME280;21820;51.112;13.762;2023-04-16T02:14:12;99213.88;;;22.27;58.02
35704;BME280;21820;51.112;13.762;2023-04-16T02:16:38;99219.94;;;22.27;58.48
35704;BME280;21820;51.112;13.762;2023-04-16T02:19:03;99218.44;;;22.25;57.86
35704;BME280;21820;51.112;13.762;2023-04-16T02:21:28;99210.22;;;22.20;57.78
35704;BME280;21820;51.112;13.762;2023-04-16T02:23:54;99229.00;;;22.33;57.80
35704;BME280;21820;51.112;13.762;2023-04-16T02:26:19;99228.31;;;22.31;57.83
35704;BME280;21820;51.112;13.762;2023-04-16T02:28:45;99229.00;;;22.33;57.55
35704;BME280;21820;51.112;13.762;2023-04-16T02:31:10;99227.03;;;22.35;58.18
35704;BME280;21820;51.112;13.762;2023-04-16T02:33:35;99238.34;;;22.35;57.13
35704;BME280;21820;51.112;13.762;2023-04-16T02:36:01;99229.81;;;22.33;57.51
35704;BME280;21820;51.112;13.762;2023-04-16T02:38:26;99235.25;;;22.40;57.44
35704;BME280;21820;51.112;13.762;2023-04-16T02:40:52;99234.72;;;22.36;57.48
35704;BME280;21820;51.112;13.762;2023-04-16T02:43:17;99226.81;;;22.28;58.05
35704;BME280;21820;51.112;13.762;2023-04-16T02:45:42;99245.72;;;22.40;57.14
35704;BME280;21820;51.112;13.762;2023-04-16T02:48:08;99250.69;;;22.43;57.57
35704;BME280;21820;51.112;13.762;2023-04-16T02:50:34;99245.13;;;22.46;57.05
35704;BME280;21820;51.112;13.762;2023-04-16T02:52:59;99245.13;;;22.46;57.65
35704;BME280;21820;51.112;13.762;2023-04-16T02:55:24;99247.06;;;22.44;57.41
35704;BME280;21820;51.112;13.762;2023-04-16T02:57:50;99248.06;;;22.43;57.22
35704;BME280;21820;51.112;13.762;2023-04-16T03:00:17;99250.69;;;22.43;57.43
35704;BME280;21820;51.112;13.762;2023-04-16T03:02:42;99254.25;;;22.42;57.38
35704;BME280;21820;51.112;13.762;2023-04-16T03:05:08;99254.63;;;22.47;57.12
35704;BME280;21820;51.112;13.762;2023-04-16T03:07:33;99253.94;;;22.45;57.62
35704;BME280;21820;51.112;13.762;2023-04-16T03:09:59;99252.16;;;22.45;57.03
35704;BME280;21820;51.112;13.762;2023-04-16T03:12:25;99257.56;;;22.44;58.00
35704;BME280;21820;51.112;13.762;2023-04-16T03:14:50;99256.88;;;22.42;57.93
35704;BME280;21820;51.112;13.762;2023-04-16T03:17:18;99260.19;;;22.44;57.32
35704;BME280;21820;51.112;13.762;2023-04-16T03:19:44;99260.19;;;22.44;57.50
35704;BME280;21820;51.112;13.762;2023-04-16T03:22:09;99249.66;;;22.36;57.80
35704;BME280;21820;51.112;13.762;2023-04-16T03:24:35;99275.22;;;22.42;57.09
35704;BME280;21820;51.112;13.762;2023-04-16T03:27:00;99275.22;;;22.42;57.11
35704;BME280;21820;51.112;13.762;2023-04-16T03:29:26;99278.00;;;22.40;57.27
35704;BME280;21820;51.112;13.762;2023-04-16T03:31:51;99281.28;;;22.42;57.23
35704;BME280;21820;51.112;13.762;2023-04-16T03:34:17;99276.50;;;22.38;57.45
35704;BME280;21820;51.112;13.762;2023-04-16T03:36:42;99264.53;;;22.35;57.47
35704;BME280;21820;51.112;13.762;2023-04-16T03:39:07;99286.69;;;22.23;57.16
35704;BME280;21820;51.112;13.762;2023-04-16T03:41:33;99285.88;;;21.87;57.05
35704;BME280;21820;51.112;13.762;2023-04-16T03:43:58;99294.50;;;21.70;57.17
35704;BME280;21820;51.112;13.762;2023-04-16T03:46:23;99287.31;;;21.72;57.11
35704;BME280;21820;51.112;13.762;2023-04-16T03:48:49;99289.75;;;21.83;56.82
35704;BME280;21820;51.112;13.762;2023-04-16T03:51:14;99275.41;;;21.87;56.69
35704;BME280;21820;51.112;13.762;2023-04-16T03:53:40;99294.56;;;22.06;56.25
35704;BME280;21820;51.112;13.762;2023-04-16T03:56:05;99307.72;;;22.14;56.05
35704;BME280;21820;51.112;13.762;2023-04-16T03:58:30;99300.59;;;22.24;56.19
35704;BME280;21820;51.112;13.762;2023-04-16T04:00:56;99303.59;;;22.29;56.27
35704;BME280;21820;51.112;13.762;2023-04-16T04:03:21;99302.97;;;22.35;55.93
35704;BME280;21820;51.112;13.762;2023-04-16T04:05:46;99309.72;;;22.37;55.48
35704;BME280;21820;51.112;13.762;2023-04-16T04:08:12;99313.81;;;22.40;56.16
35704;BME280;21820;51.112;13.762;2023-04-16T04:10:37;99315.81;;;22.38;56.05
35704;BME280;21820;51.112;13.762;2023-04-16T04:13:04;99319.69;;;22.34;55.63
35704;BME280;21820;51.112;13.762;2023-04-16T04:15:30;99318.25;;;22.39;55.95
35704;BME280;21820;51.112;13.762;2023-04-16T04:17:56;99308.06;;;22.36;55.86
35704;BME280;21820;51.112;13.762;2023-04-16T04:20:22;99322.06;;;22.45;55.89
35704;BME280;21820;51.112;13.762;2023-04-16T04:22:49;99320.47;;;22.52;55.32
35704;BME280;21820;51.112;13.762;2023-04-16T04:25:15;99323.09;;;22.52;55.17
35704;BME280;21820;51.112;13.762;2023-04-16T04:27:41;99319.63;;;22.61;55.33
35704;BME280;21820;51.112;13.762;2023-04-16T04:30:06;99320.63;;;22.68;55.29
35704;BME280;21820;51.112;13.762;2023-04-16T04:32:32;99322.34;;;22.77;55.25
35704;BME280;21820;51.112;13.762;2023-04-16T04:34:59;99323.44;;;22.74;55.26
35704;BME280;21820;51.112;13.762;2023-04-16T04:37:25;99329.53;;;22.75;54.68
35704;BME280;21820;51.112;13.762;2023-04-16T04:39:50;99328.84;;;22.73;54.62
35704;BME280;21820;51.112;13.762;2023-04-16T04:42:16;99321.63;;;22.67;54.88
35704;BME280;21820;51.112;13.762;2023-04-16T04:44:42;99318.94;;;22.59;55.29
35704;BME280;21820;51.112;13.762;2023-04-16T04:47:07;99323.25;;;22.50;55.91
35704;BME280;21820;51.112;13.762;2023-04-16T04:49:33;99324.97;;;22.42;55.45
35704;BME280;21820;51.112;13.762;2023-04-16T04:51:58;99333.59;;;22.34;56.12
35704;BME280;21820;51.112;13.762;2023-04-16T04:54:23;99335.34;;;22.26;56.32
35704;BME280;21820;51.112;13.762;2023-04-16T04:56:49;99336.88;;;22.19;56.55
35704;BME280;21820;51.112;13.762;2023-04-16T04:59:16;99339.44;;;22.11;56.31
35704;BME280;21820;51.112;13.762;2023-04-16T05:01:42;99336.06;;;22.01;57.37
35704;BME280;21820;51.112;13.762;2023-04-16T05:04:07;99338.44;;;21.94;57.39
35704;BME280;21820;51.112;13.762;2023-04-16T05:06:32;99341.91;;;21.94;57.89
35704;BME280;21820;51.112;13.762;2023-04-16T05:08:58;99332.69;;;21.90;57.68
35704;BME280;21820;51.112;13.762;2023-04-16T05:11:23;99346.91;;;22.06;57.19
35704;BME280;21820;51.112;13.762;2023-04-16T05:13:48;99348.94;;;22.12;57.13
35704;BME280;21820;51.112;13.762;2023-04-16T05:16:14;99347.06;;;22.22;56.81
35704;BME280;21820;51.112;13.762;2023-04-16T05:18:39;99353.56;;;22.35;56.20
35704;BME280;21820;51.112;13.762;2023-04-16T05:21:04;99361.19;;;22.46;56.35
35704;BME280;21820;51.112;13.762;2023-04-16T05:23:30;99345.47;;;22.46;55.65
35704;BME280;21820;51.112;13.762;2023-04-16T05:25:55;99354.63;;;22.60;55.09
35704;BME280;21820;51.112;13.762;2023-04-16T05:28:20;99366.69;;;22.53;55.79
35704;BME280;21820;51.112;13.762;2023-04-16T05:30:46;99371.09;;;22.52;55.74
35704;BME280;21820;51.112;13.762;2023-04-16T05:33:11;99372.50;;;22.47;56.10
35704;BME280;21820;51.112;13.762;2023-04-16T05:35:36;99374.22;;;22.38;56.47
35704;BME280;21820;51.112;13.762;2023-04-16T05:38:02;99384.78;;;22.29;56.04
35704;BME280;21820;51.112;13.762;2023-04-16T05:40:28;99385.38;;;22.23;56.76
35704;BME280;21820;51.112;13.762;2023-04-16T05:42:54;99387.94;;;22.15;56.56
35704;BME280;21820;51.112;13.762;2023-04-16T05:45:19;99389.34;;;22.09;57.23
35704;BME280;21820;51.112;13.762;2023-04-16T05:47:44;99397.91;;;22.02;57.25
35704;BME280;21820;51.112;13.762;2023-04-16T05:50:10;99402.63;;;21.98;57.67
35704;BME280;21820;51.112;13.762;2023-04-16T05:52:35;99406.06;;;21.98;57.68
35704;BME280;21820;51.112;13.762;2023-04-16T05:55:00;99412.06;;;22.09;57.52
35704;BME280;21820;51.112;13.762;2023-04-16T05:57:29;99409.28;;;22.10;56.88
35704;BME280;21820;51.112;13.762;2023-04-16T05:59:54;99401.25;;;22.21;56.53
35704;BME280;21820;51.112;13.762;2023-04-16T06:02:19;99403.50;;;22.34;56.28
35704;BME280;21820;51.112;13.762;2023-04-16T06:04:45;99410.47;;;22.43;56.05
35704;BME280;21820;51.112;13.762;2023-04-16T06:07:10;99412.75;;;22.55;55.91
35704;BME280;21820;51.112;13.762;2023-04-16T06:09:36;99412.28;;;22.60;55.43
35704;BME280;21820;51.112;13.762;2023-04-16T06:12:01;99401.13;;;22.58;55.08
35704;BME280;21820;51.112;13.762;2023-04-16T06:16:52;99414.91;;;22.60;55.15
35704;BME280;21820;51.112;13.762;2023-04-16T06:19:17;99411.59;;;22.58;55.25
35704;BME280;21820;51.112;13.762;2023-04-16T06:21:43;99421.28;;;22.48;55.65
35704;BME280;21820;51.112;13.762;2023-04-16T06:24:08;99426.47;;;22.40;56.30
35704;BME280;21820;51.112;13.762;2023-04-16T06:26:33;99422.81;;;22.33;56.18
35704;BME280;21820;51.112;13.762;2023-04-16T06:28:59;99427.28;;;22.23;57.12
35704;BME280;21820;51.112;13.762;2023-04-16T06:31:25;99428.00;;;22.15;57.10
35704;BME280;21820;51.112;13.762;2023-04-16T06:33:50;99435.47;;;22.10;57.10
35704;BME280;21820;51.112;13.762;2023-04-16T06:36:16;99434.28;;;22.05;57.52
35704;BME280;21820;51.112;13.762;2023-04-16T06:38:41;99434.84;;;21.98;57.38
35704;BME280;21820;51.112;13.762;2023-04-16T06:41:07;99427.50;;;21.84;57.74
35704;BME280;21820;51.112;13.762;2023-04-16T06:43:32;99433.50;;;21.94;57.86
35704;BME280;21820;51.112;13.762;2023-04-16T06:45:58;99435.16;;;21.95;57.35
35704;BME280;21820;51.112;13.762;2023-04-16T06:48:23;99434.56;;;22.02;57.62
35704;BME280;21820;51.112;13.762;2023-04-16T06:50:49;99420.50;;;22.03;57.02
35704;BME280;21820;51.112;13.762;2023-04-16T06:53:15;99434.16;;;22.24;56.53
35704;BME280;21820;51.112;13.762;2023-04-16T06:55:40;99434.63;;;22.37;56.49
35704;BME280;21820;51.112;13.762;2023-04-16T06:58:06;99431.22;;;22.54;55.86
35704;BME280;21820;51.112;13.762;2023-04-16T07:00:31;99435.47;;;22.55;55.95
35704;BME280;21820;51.112;13.762;2023-04-16T07:02:56;99438.09;;;22.55;55.80
35704;BME280;21820;51.112;13.762;2023-04-16T07:05:24;99424.59;;;22.50;55.45
35704;BME280;21820;51.112;13.762;2023-04-16T07:07:49;99432.31;;;22.51;56.24
35704;BME280;21820;51.112;13.762;2023-04-16T07:10:15;99424.91;;;22.47;56.02
35704;BME280;21820;51.112;13.762;2023-04-16T07:12:40;99430.06;;;22.39;55.92
35704;BME280;21820;51.112;13.762;2023-04-16T07:15:06;99436.06;;;22.31;56.21
35704;BME280;21820;51.112;13.762;2023-04-16T07:17:31;99442.03;;;22.24;56.74
35704;BME280;21820;51.112;13.762;2023-04-16T07:19:57;99425.16;;;22.09;56.76
35704;BME280;21820;51.112;13.762;2023-04-16T07:22:22;99444.16;;;22.11;57.49
35704;BME280;21820;51.112;13.762;2023-04-16T07:24:47;99448.34;;;22.04;57.10
35704;BME280;21820;51.112;13.762;2023-04-16T07:27:13;99455.00;;;21.98;57.69
35704;BME280;21820;51.112;13.762;2023-04-16T07:29:38;99447.56;;;21.93;57.89
35704;BME280;21820;51.112;13.762;2023-04-16T07:32:04;99445.63;;;21.95;57.90
35704;BME280;21820;51.112;13.762;2023-04-16T07:34:29;99449.38;;;21.93;57.87
35704;BME280;21820;51.112;13.762;2023-04-16T07:36:55;99450.25;;;22.02;57.61
35704;BME280;21820;51.112;13.762;2023-04-16T07:39:20;99458.63;;;22.15;56.90
35704;BME280;21820;51.112;13.762;2023-04-16T07:41:46;99461.19;;;22.24;57.16
35704;BME280;21820;51.112;13.762;2023-04-16T07:44:11;99458.19;;;22.37;56.44
35704;BME280;21820;51.112;13.762;2023-04-16T07:46:37;99461.56;;;22.47;56.05
35704;BME280;21820;51.112;13.762;2023-04-16T07:49:02;99465.38;;;22.62;56.05
35704;BME280;21820;51.112;13.762;2023-04-16T07:51:28;99461.13;;;22.51;53.74
35704;BME280;21820;51.112;13.762;2023-04-16T07:53:53;99456.34;;;22.47;53.84
35704;BME280;21820;51.112;13.762;2023-04-16T07:56:18;99464.56;;;22.52;54.63
35704;BME280;21820;51.112;13.762;2023-04-16T07:58:43;99469.81;;;22.52;54.92
35704;BME280;21820;51.112;13.762;2023-04-16T08:01:09;99474.53;;;22.48;55.06
35704;BME280;21820;51.112;13.762;2023-04-16T08:03:34;99474.28;;;22.42;55.32
35704;BME280;21820;51.112;13.762;2023-04-16T08:06:00;99470.59;;;22.35;55.71
35704;BME280;21820;51.112;13.762;2023-04-16T08:08:25;99459.56;;;22.14;55.68
35704;BME280;21820;51.112;13.762;2023-04-16T08:10:50;99469.09;;;22.15;55.29
35704;BME280;21820;51.112;13.762;2023-04-16T08:13:21;99477.06;;;22.13;56.38
35704;BME280;21820;51.112;13.762;2023-04-16T08:15:48;99487.31;;;22.07;56.49
35704;BME280;21820;51.112;13.762;2023-04-16T08:18:13;99479.75;;;22.04;56.32
35704;BME280;21820;51.112;13.762;2023-04-16T08:20:40;99478.56;;;21.98;56.83
35704;BME280;21820;51.112;13.762;2023-04-16T08:23:05;99482.25;;;21.95;57.13
35704;BME280;21820;51.112;13.762;2023-04-16T08:25:31;99483.41;;;21.93;57.14
35704;BME280;21820;51.112;13.762;2023-04-16T08:27:56;99484.59;;;21.98;56.79
35704;BME280;21820;51.112;13.762;2023-04-16T08:30:21;99491.06;;;22.04;56.79
35704;BME280;21820;51.112;13.762;2023-04-16T08:32:47;99495.28;;;22.15;56.42
35704;BME280;21820;51.112;13.762;2023-04-16T08:35:12;99493.78;;;22.30;56.19
35704;BME280;21820;51.112;13.762;2023-04-16T08:37:38;99495.84;;;22.36;56.28
35704;BME280;21820;51.112;13.762;2023-04-16T08:40:03;99507.75;;;22.48;55.50
35704;BME280;21820;51.112;13.762;2023-04-16T08:42:31;99505.53;;;22.53;55.51
35704;BME280;21820;51.112;13.762;2023-04-16T08:47:30;99509.84;;;22.54;55.36
35704;BME280;21820;51.112;13.762;2023-04-16T08:49:59;99508.72;;;22.47;55.39
35704;BME280;21820;51.112;13.762;2023-04-16T08:52:26;99506.41;;;22.44;56.06
35704;BME280;21820;51.112;13.762;2023-04-16T08:55:12;99504.00;;;22.33;56.36
35704;BME280;21820;51.112;13.762;2023-04-16T08:57:51;99508.84;;;22.28;56.70
35704;BME280;21820;51.112;13.762;2023-04-16T09:00:18;99514.66;;;22.22;56.60
35704;BME280;21820;51.112;13.762;2023-04-16T09:02:44;99511.66;;;22.17;56.35
35704;BME280;21820;51.112;13.762;2023-04-16T09:05:13;99513.06;;;22.11;56.88
35704;BME280;21820;51.112;13.762;2023-04-16T09:07:41;99510.47;;;22.02;56.81
35704;BME280;21820;51.112;13.762;2023-04-16T09:10:08;99513.38;;;21.98;57.13
35704;BME280;21820;51.112;13.762;2023-04-16T09:12:34;99524.97;;;21.96;56.82
35704;BME280;21820;51.112;13.762;2023-04-16T09:15:00;99505.19;;;21.84;57.46
35704;BME280;21820;51.112;13.762;2023-04-16T09:17:27;99520.31;;;21.90;57.35
35704;BME280;21820;51.112;13.762;2023-04-16T09:19:52;99521.72;;;21.84;57.44
35704;BME280;21820;51.112;13.762;2023-04-16T09:22:19;99522.53;;;21.85;57.65
35704;BME280;21820;51.112;13.762;2023-04-16T09:24:45;99521.72;;;21.84;57.45
35704;BME280;21820;51.112;13.762;2023-04-16T09:27:11;99529.97;;;21.89;57.51
35704;BME280;21820;51.112;13.762;2023-04-16T09:29:40;99532.97;;;21.94;57.31
35704;BME280;21820;51.112;13.762;2023-04-16T09:32:08;99533.34;;;22.09;57.65
35704;BME280;21820;51.112;13.762;2023-04-16T09:34:56;99532.31;;;22.20;56.78
35704;BME280;21820;51.112;13.762;2023-04-16T09:37:22;99521.28;;;22.26;56.48
35704;BME280;21820;51.112;13.762;2023-04-16T09:40:01;99522.03;;;22.36;56.59
35704;BME280;21820;51.112;13.762;2023-04-16T09:42:34;99539.50;;;22.45;55.98
35704;BME280;21820;51.112;13.762;2023-04-16T09:45:00;99535.22;;;22.44;55.95
35704;BME280;21820;51.112;13.762;2023-04-16T09:47:39;99539.78;;;22.42;56.52
35704;BME280;21820;51.112;13.762;2023-04-16T09:50:06;99529.81;;;22.28;56.60
35704;BME280;21820;51.112;13.762;2023-04-16T09:52:35;99546.88;;;22.32;56.52
35704;BME280;21820;51.112;13.762;2023-04-16T09:55:02;99532.88;;;22.14;56.70
35704;BME280;21820;51.112;13.762;2023-04-16T09:57:28;99553.25;;;22.20;56.86
35704;BME280;21820;51.112;13.762;2023-04-16T09:59:59;99553.84;;;22.14;56.78
35704;BME280;21820;51.112;13.762;2023-04-16T10:02:29;99552.75;;;22.07;57.15
35704;BME280;21820;51.112;13.762;2023-04-16T10:04:55;99555.53;;;22.05;57.58
35704;BME280;21820;51.112;13.762;2023-04-16T10:07:22;99552.78;;;21.97;57.19
35704;BME280;21820;51.112;13.762;2023-04-16T10:09:48;99553.91;;;21.94;57.77
35704;BME280;21820;51.112;13.762;2023-04-16T10:12:14;99549.78;;;21.92;58.00
35704;BME280;21820;51.112;13.762;2023-04-16T10:14:40;99558.06;;;21.87;57.62
35704;BME280;21820;51.112;13.762;2023-04-16T10:17:09;99558.38;;;21.84;57.95
35704;BME280;21820;51.112;13.762;2023-04-16T10:19:34;99551.59;;;21.82;57.75
35704;BME280;21820;51.112;13.762;2023-04-16T10:22:01;99556.69;;;21.83;57.83
35704;BME280;21820;51.112;13.762;2023-04-16T10:24:30;99560.28;;;21.82;57.90
35704;BME280;21820;51.112;13.762;2023-04-16T10:26:56;99565.53;;;21.82;57.51
35704;BME280;21820;51.112;13.762;2023-04-16T10:29:22;99560.28;;;21.82;58.39
35704;BME280;21820;51.112;13.762;2023-04-16T10:31:49;99547.88;;;21.75;58.18
35704;BME280;21820;51.112;13.762;2023-04-16T10:34:15;99563.69;;;21.92;57.92
35704;BME280;21820;51.112;13.762;2023-04-16T10:36:41;99560.50;;;21.98;58.10
35704;BME280;21820;51.112;13.762;2023-04-16T10:39:11;99564.59;;;22.11;57.11
35704;BME280;21820;51.112;13.762;2023-04-16T10:41:37;99559.03;;;22.23;57.01
35704;BME280;21820;51.112;13.762;2023-04-16T10:44:05;99561.25;;;22.28;56.36
35704;BME280;21820;51.112;13.762;2023-04-16T10:46:32;99559.00;;;22.33;56.33
35704;BME280;21820;51.112;13.762;2023-04-16T10:49:18;99567.81;;;22.32;56.32
35704;BME280;21820;51.112;13.762;2023-04-16T10:52:15;99575.69;;;22.32;56.62
35704;BME280;21820;51.112;13.762;2023-04-16T10:54:42;99573.66;;;22.26;56.49
35704;BME280;21820;51.112;13.762;2023-04-16T10:57:09;99567.31;;;22.19;57.30
35704;BME280;21820;51.112;13.762;2023-04-16T10:59:41;99571.22;;;22.15;57.19
35704;BME280;21820;51.112;13.762;2023-04-16T11:02:13;99571.78;;;22.09;57.38
35704;BME280;21820;51.112;13.762;2023-04-16T11:04:41;99567.00;;;21.94;57.63
35704;BME280;21820;51.112;13.762;2023-04-16T11:09:45;99581.75;;;21.95;58.01
35704;BME280;21820;51.112;13.762;2023-04-16T11:14:51;99572.78;;;21.88;57.70
35704;BME280;21820;51.112;13.762;2023-04-16T11:17:18;99576.53;;;21.86;58.23
35704;BME280;21820;51.112;13.762;2023-04-16T11:19:44;99577.38;;;21.86;58.12
35704;BME280;21820;51.112;13.762;2023-04-16T11:22:15;99570.47;;;21.85;57.76
35704;BME280;21820;51.112;13.762;2023-04-16T11:24:45;99554.22;;;21.72;57.90
35704;BME280;21820;51.112;13.762;2023-04-16T11:27:12;99572.53;;;21.82;57.89
35704;BME280;21820;51.112;13.762;2023-04-16T11:29:38;99569.13;;;21.81;58.03
35704;BME280;21820;51.112;13.762;2023-04-16T11:32:03;99562.75;;;21.74;58.13
35704;BME280;21820;51.112;13.762;2023-04-16T11:34:28;99570.06;;;21.80;57.91
35704;BME280;21820;51.112;13.762;2023-04-16T11:36:54;99573.66;;;21.79;58.47
35704;BME280;21820;51.112;13.762;2023-04-16T11:39:20;99570.22;;;21.79;58.03
35704;BME280;21820;51.112;13.762;2023-04-16T11:41:50;99572.00;;;21.78;58.52
35704;BME280;21820;51.112;13.762;2023-04-16T11:46:41;99552.72;;;21.79;58.26
35704;BME280;21820;51.112;13.762;2023-04-16T11:49:07;99564.09;;;21.98;57.58
35704;BME280;21820;51.112;13.762;2023-04-16T11:51:38;99572.47;;;22.11;57.20
35704;BME280;21820;51.112;13.762;2023-04-16T11:54:03;99571.22;;;22.15;57.40
35704;BME280;21820;51.112;13.762;2023-04-16T11:56:31;99574.88;;;22.22;57.03
35704;BME280;21820;51.112;13.762;2023-04-16T12:01:36;99567.31;;;22.19;57.05
35704;BME280;21820;51.112;13.762;2023-04-16T12:04:02;99564.31;;;22.14;57.19
35704;BME280;21820;51.112;13.762;2023-04-16T12:06:28;99569.00;;;22.10;57.50
35704;BME280;21820;51.112;13.762;2023-04-16T12:08:53;99565.34;;;22.03;57.27
35704;BME280;21820;51.112;13.762;2023-04-16T12:11:19;99575.91;;;22.02;57.76
35704;BME280;21820;51.112;13.762;2023-04-16T12:14:07;99562.63;;;21.85;57.42
35704;BME280;21820;51.112;13.762;2023-04-16T12:16:32;99560.97;;;21.84;58.03
35704;BME280;21820;51.112;13.762;2023-04-16T12:18:59;99549.41;;;21.77;57.85
35704;BME280;21820;51.112;13.762;2023-04-16T12:21:35;99560.28;;;21.82;57.65
35704;BME280;21820;51.112;13.762;2023-04-16T12:24:01;99567.16;;;21.83;58.04
35704;BME280;21820;51.112;13.762;2023-04-16T12:26:26;99568.28;;;21.81;57.82
35704;BME280;21820;51.112;13.762;2023-04-16T12:28:52;99572.97;;;21.77;58.19
35704;BME280;21820;51.112;13.762;2023-04-16T12:31:17;99571.03;;;21.79;58.53
35704;BME280;21820;51.112;13.762;2023-04-16T12:34:01;99571.03;;;21.79;57.85
35704;BME280;21820;51.112;13.762;2023-04-16T12:36:26;99576.28;;;21.79;58.44
35704;BME280;21820;51.112;13.762;2023-04-16T12:38:52;99575.59;;;21.77;58.05
35704;BME280;21820;51.112;13.762;2023-04-16T12:41:17;99570.22;;;21.79;58.62
35704;BME280;21820;51.112;13.762;2023-04-16T12:43:43;99558.91;;;21.69;58.49
35704;BME280;21820;51.112;13.762;2023-04-16T12:46:08;99574.59;;;21.78;58.42
35704;BME280;21820;51.112;13.762;2023-04-16T12:48:33;99576.28;;;21.79;58.72
35704;BME280;21820;51.112;13.762;2023-04-16T12:50:58;99564.13;;;21.78;58.05
35704;BME280;21820;51.112;13.762;2023-04-16T12:53:24;99568.81;;;21.84;57.99
35704;BME280;21820;51.112;13.762;2023-04-16T12:55:50;99567.28;;;21.91;57.76
35704;BME280;21820;51.112;13.762;2023-04-16T12:58:15;99564.22;;;22.06;57.74
35704;BME280;21820;51.112;13.762;2023-04-16T13:00:40;99569.56;;;22.14;57.51